sensor_id;sensor_type;location;lat;lon;timestamp;temperature;humidity
48515;DHT22;34309;47.260;2.796;2024-01-15T00:00:34;18.10;14.50
48515;DHT22;34309;47.260;2.796;2024-01-15T00:03:08;18.10;14.50
48515;DHT22;34309;47.260;2.796;2024-01-15T00:05:44;18.10;14.40
48515;DHT22;34309;47.260;2.796;2024-01-15T00:08:18;18.10;14.50
48515;DHT22;34309;47.260;2.796;2024-01-15T00:10:51;18.20;14.50
48515;DHT22;34309;47.260;2.796;2024-01-15T00:13:20;18.10;14.50
48515;DHT22;34309;47.260;2.796;2024-01-15T00:15:54;18.10;14.40
48515;DHT22;34309;47.260;2.796;2024-01-15T00:18:28;18.10;14.50
48515;DHT22;34309;47.260;2.796;2024-01-15T00:21:04;18.10;14.40
48515;DHT22;34309;47.260;2.796;2024-01-15T00:23:39;18.20;14.40
48515;DHT22;34309;47.260;2.796;2024-01-15T00:26:15;18.10;14.40
48515;DHT22;34309;47.260;2.796;2024-01-15T00:28:49;18.10;14.40
48515;DHT22;34309;47.260;2.796;2024-01-15T00:31:23;18.10;14.30
48515;DHT22;34309;47.260;2.796;2024-01-15T00:33:56;18.10;14.30
48515;DHT22;34309;47.260;2.796;2024-01-15T00:36:32;18.10;14.40
48515;DHT22;34309;47.260;2.796;2024-01-15T00:39:05;18.10;14.40
48515;DHT22;34309;47.260;2.796;2024-01-15T00:41:39;18.10;14.40
48515;DHT22;34309;47.260;2.796;2024-01-15T00:44:12;18.10;14.50
48515;DHT22;34309;47.260;2.796;2024-01-15T00:46:46;18.10;14.50
48515;DHT22;34309;47.260;2.796;2024-01-15T00:49:22;18.10;14.60
48515;DHT22;34309;47.260;2.796;2024-01-15T00:51:57;18.00;14.40
48515;DHT22;34309;47.260;2.796;2024-01-15T00:54:31;18.00;14.30
48515;DHT22;34309;47.260;2.796;2024-01-15T00:57:11;18.00;14.40
48515;DHT22;34309;47.260;2.796;2024-01-15T00:59:44;18.00;14.30
48515;DHT22;34309;47.260;2.796;2024-01-15T01:02:19;18.00;14.30
48515;DHT22;34309;47.260;2.796;2024-01-15T01:04:53;17.90;14.30
48515;DHT22;34309;47.260;2.796;2024-01-15T01:07:28;17.90;14.50
48515;DHT22;34309;47.260;2.796;2024-01-15T01:10:02;17.90;14.40
48515;DHT22;34309;47.260;2.796;2024-01-15T01:12:37;18.00;14.40
48515;DHT22;34309;47.260;2.796;2024-01-15T01:15:11;18.00;14.40
48515;DHT22;34309;47.260;2.796;2024-01-15T01:17:44;18.00;14.40
48515;DHT22;34309;47.260;2.796;2024-01-15T01:20:18;18.00;14.30
48515;DHT22;34309;47.260;2.796;2024-01-15T01:22:53;18.00;14.40
48515;DHT22;34309;47.260;2.796;2024-01-15T01:25:27;18.10;14.40
48515;DHT22;34309;47.260;2.796;2024-01-15T01:28:01;18.10;14.50
48515;DHT22;34309;47.260;2.796;2024-01-15T01:30:34;18.10;14.50
48515;DHT22;34309;47.260;2.796;2024-01-15T01:33:08;18.10;14.50
48515;DHT22;34309;47.260;2.796;2024-01-15T01:35:42;18.10;14.50
48515;DHT22;34309;47.260;2.796;2024-01-15T01:38:17;18.10;14.50
48515;DHT22;34309;47.260;2.796;2024-01-15T01:40:50;18.10;14.40
48515;DHT22;34309;47.260;2.796;2024-01-15T01:43:24;18.10;14.50
48515;DHT22;34309;47.260;2.796;2024-01-15T01:45:58;18.10;14.50
48515;DHT22;34309;47.260;2.796;2024-01-15T01:48:33;18.10;14.40
48515;DHT22;34309;47.260;2.796;2024-01-15T01:51:07;18.10;14.40
48515;DHT22;34309;47.260;2.796;2024-01-15T01:53:44;18.10;14.40
48515;DHT22;34309;47.260;2.796;2024-01-15T01:56:19;18.10;14.40
48515;DHT22;34309;47.260;2.796;2024-01-15T01:58:53;18.10;14.30
48515;DHT22;34309;47.260;2.796;2024-01-15T02:01:27;18.10;14.40
48515;DHT22;34309;47.260;2.796;2024-01-15T02:04:00;18.00;14.30
48515;DHT22;34309;47.260;2.796;2024-01-15T02:06:35;18.00;14.30
48515;DHT22;34309;47.260;2.796;2024-01-15T02:09:12;18.00;14.30
48515;DHT22;34309;47.260;2.796;2024-01-15T02:11:47;18.00;14.30
48515;DHT22;34309;47.260;2.796;2024-01-15T02:14:21;18.00;14.30
48515;DHT22;34309;47.260;2.796;2024-01-15T02:16:55;17.90;14.30
48515;DHT22;34309;47.260;2.796;2024-01-15T02:19:28;18.00;14.30
48515;DHT22;34309;47.260;2.796;2024-01-15T02:22:02;18.00;14.40
48515;DHT22;34309;47.260;2.796;2024-01-15T02:24:37;17.90;14.40
48515;DHT22;34309;47.260;2.796;2024-01-15T02:27:11;17.90;14.40
48515;DHT22;34309;47.260;2.796;2024-01-15T02:29:45;18.00;14.50
48515;DHT22;34309;47.260;2.796;2024-01-15T02:32:19;17.90;14.40
48515;DHT22;34309;47.260;2.796;2024-01-15T02:34:53;18.00;14.50
48515;DHT22;34309;47.260;2.796;2024-01-15T02:37:28;18.00;14.50
48515;DHT22;34309;47.260;2.796;2024-01-15T02:40:03;18.00;14.30
48515;DHT22;34309;47.260;2.796;2024-01-15T02:42:37;18.00;14.30
48515;DHT22;34309;47.260;2.796;2024-01-15T02:45:10;18.00;14.40
48515;DHT22;34309;47.260;2.796;2024-01-15T02:47:44;18.00;14.30
48515;DHT22;34309;47.260;2.796;2024-01-15T02:50:18;18.10;14.40
48515;DHT22;34309;47.260;2.796;2024-01-15T02:52:52;18.10;14.50
48515;DHT22;34309;47.260;2.796;2024-01-15T02:55:34;18.10;14.30
48515;DHT22;34309;47.260;2.796;2024-01-15T02:58:08;18.10;14.30
48515;DHT22;34309;47.260;2.796;2024-01-15T03:00:42;18.10;14.40
48515;DHT22;34309;47.260;2.796;2024-01-15T03:03:15;18.10;14.40
48515;DHT22;34309;47.260;2.796;2024-01-15T03:05:49;18.10;14.30
48515;DHT22;34309;47.260;2.796;2024-01-15T03:08:25;18.10;14.40
48515;DHT22;34309;47.260;2.796;2024-01-15T03:11:00;18.10;14.40
48515;DHT22;34309;47.260;2.796;2024-01-15T03:13:36;18.10;14.30
48515;DHT22;34309;47.260;2.796;2024-01-15T03:16:10;18.10;14.40
48515;DHT22;34309;47.260;2.796;2024-01-15T03:18:44;18.10;14.30
48515;DHT22;34309;47.260;2.796;2024-01-15T03:21:18;18.10;14.30
48515;DHT22;34309;47.260;2.796;2024-01-15T03:23:51;18.10;14.30
48515;DHT22;34309;47.260;2.796;2024-01-15T03:26:26;18.10;14.30
48515;DHT22;34309;47.260;2.796;2024-01-15T03:29:00;18.00;14.30
48515;DHT22;34309;47.260;2.796;2024-01-15T03:31:34;18.00;14.30
48515;DHT22;34309;47.260;2.796;2024-01-15T03:34:07;18.00;14.30
48515;DHT22;34309;47.260;2.796;2024-01-15T03:36:44;18.00;14.40
48515;DHT22;34309;47.260;2.796;2024-01-15T03:39:18;18.00;14.30
48515;DHT22;34309;47.260;2.796;2024-01-15T03:41:53;18.00;14.30
48515;DHT22;34309;47.260;2.796;2024-01-15T03:44:26;18.00;14.30
48515;DHT22;34309;47.260;2.796;2024-01-15T03:47:00;17.90;14.30
48515;DHT22;34309;47.260;2.796;2024-01-15T03:49:34;17.90;14.30
48515;DHT22;34309;47.260;2.796;2024-01-15T03:52:08;17.90;14.30
48515;DHT22;34309;47.260;2.796;2024-01-15T03:54:42;18.00;14.30
48515;DHT22;34309;47.260;2.796;2024-01-15T03:57:17;18.00;14.30
48515;DHT22;34309;47.260;2.796;2024-01-15T03:59:51;18.00;14.20
48515;DHT22;34309;47.260;2.796;2024-01-15T04:02:24;18.00;14.20
48515;DHT22;34309;47.260;2.796;2024-01-15T04:04:58;18.00;14.50
48515;DHT22;34309;47.260;2.796;2024-01-15T04:07:32;18.10;14.30
48515;DHT22;34309;47.260;2.796;2024-01-15T04:10:06;18.10;14.30
48515;DHT22;34309;47.260;2.796;2024-01-15T04:12:42;18.10;14.30
48515;DHT22;34309;47.260;2.796;2024-01-15T04:15:18;18.10;14.20
48515;DHT22;34309;47.260;2.796;2024-01-15T04:17:52;18.10;14.20
48515;DHT22;34309;47.260;2.796;2024-01-15T04:20:26;18.10;14.30
48515;DHT22;34309;47.260;2.796;2024-01-15T04:23:00;18.10;14.20
48515;DHT22;34309;47.260;2.796;2024-01-15T04:25:28;18.10;14.20
48515;DHT22;34309;47.260;2.796;2024-01-15T04:28:04;18.10;14.30
48515;DHT22;34309;47.260;2.796;2024-01-15T04:30:38;18.10;14.30
48515;DHT22;34309;47.260;2.796;2024-01-15T04:33:12;18.10;14.30
48515;DHT22;34309;47.260;2.796;2024-01-15T04:35:45;18.10;14.20
48515;DHT22;34309;47.260;2.796;2024-01-15T04:38:19;18.10;14.30
48515;DHT22;34309;47.260;2.796;2024-01-15T04:40:53;18.10;14.20
48515;DHT22;34309;47.260;2.796;2024-01-15T04:43:28;18.10;14.20
48515;DHT22;34309;47.260;2.796;2024-01-15T04:46:02;18.10;14.20
48515;DHT22;34309;47.260;2.796;2024-01-15T04:48:37;18.10;14.10
48515;DHT22;34309;47.260;2.796;2024-01-15T04:51:10;18.00;14.00
48515;DHT22;34309;47.260;2.796;2024-01-15T04:53:45;18.00;14.10
48515;DHT22;34309;47.260;2.796;2024-01-15T04:56:19;18.00;14.10
48515;DHT22;34309;47.260;2.796;2024-01-15T04:58:54;18.00;14.00
48515;DHT22;34309;47.260;2.796;2024-01-15T05:01:31;18.00;13.90
48515;DHT22;34309;47.260;2.796;2024-01-15T05:04:04;17.90;14.10
48515;DHT22;34309;47.260;2.796;2024-01-15T05:06:38;18.00;14.10
48515;DHT22;34309;47.260;2.796;2024-01-15T05:09:12;17.90;14.00
48515;DHT22;34309;47.260;2.796;2024-01-15T05:11:46;17.90;14.10
48515;DHT22;34309;47.260;2.796;2024-01-15T05:14:21;17.90;14.10
48515;DHT22;34309;47.260;2.796;2024-01-15T05:16:55;17.90;14.10
48515;DHT22;34309;47.260;2.796;2024-01-15T05:19:29;17.90;14.10
48515;DHT22;34309;47.260;2.796;2024-01-15T05:22:03;17.90;14.10
48515;DHT22;34309;47.260;2.796;2024-01-15T05:24:37;17.90;14.10
48515;DHT22;34309;47.260;2.796;2024-01-15T05:27:11;17.90;14.00
48515;DHT22;34309;47.260;2.796;2024-01-15T05:29:46;17.90;14.00
48515;DHT22;34309;47.260;2.796;2024-01-15T05:32:20;17.90;14.10
48515;DHT22;34309;47.260;2.796;2024-01-15T05:34:54;17.90;14.00
48515;DHT22;34309;47.260;2.796;2024-01-15T05:37:23;17.90;14.00
48515;DHT22;34309;47.260;2.796;2024-01-15T05:39:56;18.00;14.10
48515;DHT22;34309;47.260;2.796;2024-01-15T05:42:30;18.00;14.10
48515;DHT22;34309;47.260;2.796;2024-01-15T05:45:06;18.00;14.10
48515;DHT22;34309;47.260;2.796;2024-01-15T05:47:40;18.00;14.10
48515;DHT22;34309;47.260;2.796;2024-01-15T05:50:13;18.00;14.10
48515;DHT22;34309;47.260;2.796;2024-01-15T05:52:47;18.00;14.20
48515;DHT22;34309;47.260;2.796;2024-01-15T05:55:21;17.90;14.00
48515;DHT22;34309;47.260;2.796;2024-01-15T05:57:54;17.90;14.00
48515;DHT22;34309;47.260;2.796;2024-01-15T06:00:29;17.90;14.10
48515;DHT22;34309;47.260;2.796;2024-01-15T06:03:05;17.90;14.00
48515;DHT22;34309;47.260;2.796;2024-01-15T06:05:39;18.00;14.10
48515;DHT22;34309;47.260;2.796;2024-01-15T06:08:13;17.90;14.10
48515;DHT22;34309;47.260;2.796;2024-01-15T06:10:46;17.90;14.00
48515;DHT22;34309;47.260;2.796;2024-01-15T06:13:20;17.90;14.00
48515;DHT22;34309;47.260;2.796;2024-01-15T06:15:55;17.90;14.00
48515;DHT22;34309;47.260;2.796;2024-01-15T06:18:29;17.90;14.00
48515;DHT22;34309;47.260;2.796;2024-01-15T06:21:03;17.90;14.10
48515;DHT22;34309;47.260;2.796;2024-01-15T06:23:37;17.80;14.10
48515;DHT22;34309;47.260;2.796;2024-01-15T06:26:11;17.80;14.10
48515;DHT22;34309;47.260;2.796;2024-01-15T06:28:45;17.80;14.10
48515;DHT22;34309;47.260;2.796;2024-01-15T06:31:20;17.80;14.10
48515;DHT22;34309;47.260;2.796;2024-01-15T06:33:54;17.80;14.20
48515;DHT22;34309;47.260;2.796;2024-01-15T06:36:27;17.90;14.10
48515;DHT22;34309;47.260;2.796;2024-01-15T06:39:01;17.90;14.10
48515;DHT22;34309;47.260;2.796;2024-01-15T06:41:34;18.00;14.10
48515;DHT22;34309;47.260;2.796;2024-01-15T06:44:13;18.10;14.10
48515;DHT22;34309;47.260;2.796;2024-01-15T06:46:49;18.20;14.00
48515;DHT22;34309;47.260;2.796;2024-01-15T06:49:23;18.30;14.10
48515;DHT22;34309;47.260;2.796;2024-01-15T06:51:57;18.30;13.90
48515;DHT22;34309;47.260;2.796;2024-01-15T06:54:30;18.40;14.00
48515;DHT22;34309;47.260;2.796;2024-01-15T06:57:04;18.40;14.00
48515;DHT22;34309;47.260;2.796;2024-01-15T06:59:43;18.40;14.00
48515;DHT22;34309;47.260;2.796;2024-01-15T07:02:18;18.40;14.00
48515;DHT22;34309;47.260;2.796;2024-01-15T07:04:53;18.50;14.00
48515;DHT22;34309;47.260;2.796;2024-01-15T07:07:27;18.50;14.00
48515;DHT22;34309;47.260;2.796;2024-01-15T07:10:02;18.50;13.90
48515;DHT22;34309;47.260;2.796;2024-01-15T07:12:35;18.50;13.80
48515;DHT22;34309;47.260;2.796;2024-01-15T07:15:09;18.50;13.80
48515;DHT22;34309;47.260;2.796;2024-01-15T07:17:44;18.50;13.90
48515;DHT22;34309;47.260;2.796;2024-01-15T07:20:18;18.50;13.90
48515;DHT22;34309;47.260;2.796;2024-01-15T07:22:52;18.50;13.80
48515;DHT22;34309;47.260;2.796;2024-01-15T07:25:26;18.50;13.80
48515;DHT22;34309;47.260;2.796;2024-01-15T07:28:00;18.50;13.70
48515;DHT22;34309;47.260;2.796;2024-01-15T07:30:36;18.50;13.80
48515;DHT22;34309;47.260;2.796;2024-01-15T07:33:12;18.50;13.90
48515;DHT22;34309;47.260;2.796;2024-01-15T07:35:46;18.40;13.90
48515;DHT22;34309;47.260;2.796;2024-01-15T07:38:20;18.50;13.90
48515;DHT22;34309;47.260;2.796;2024-01-15T07:40:54;18.40;13.80
48515;DHT22;34309;47.260;2.796;2024-01-15T07:43:28;18.40;13.90
48515;DHT22;34309;47.260;2.796;2024-01-15T07:46:02;18.30;13.90
48515;DHT22;34309;47.260;2.796;2024-01-15T07:48:37;18.30;13.90
48515;DHT22;34309;47.260;2.796;2024-01-15T07:51:10;18.30;13.90
48515;DHT22;34309;47.260;2.796;2024-01-15T07:53:44;18.30;14.00
48515;DHT22;34309;47.260;2.796;2024-01-15T07:56:18;18.20;13.90
48515;DHT22;34309;47.260;2.796;2024-01-15T07:58:47;18.20;14.00
48515;DHT22;34309;47.260;2.796;2024-01-15T08:01:20;18.20;14.00
48515;DHT22;34309;47.260;2.796;2024-01-15T08:03:55;18.10;13.90
48515;DHT22;34309;47.260;2.796;2024-01-15T08:06:29;18.10;13.90
48515;DHT22;34309;47.260;2.796;2024-01-15T08:09:04;18.10;13.90
48515;DHT22;34309;47.260;2.796;2024-01-15T08:11:39;18.10;14.00
48515;DHT22;34309;47.260;2.796;2024-01-15T08:14:17;18.10;13.90
48515;DHT22;34309;47.260;2.796;2024-01-15T08:16:51;18.00;13.90
48515;DHT22;34309;47.260;2.796;2024-01-15T08:19:26;18.00;13.90
48515;DHT22;34309;47.260;2.796;2024-01-15T08:22:00;18.00;13.90
48515;DHT22;34309;47.260;2.796;2024-01-15T08:24:34;17.90;13.90
48515;DHT22;34309;47.260;2.796;2024-01-15T08:27:08;17.90;14.00
48515;DHT22;34309;47.260;2.796;2024-01-15T08:29:41;17.90;14.00
48515;DHT22;34309;47.260;2.796;2024-01-15T08:32:15;17.80;14.60
48515;DHT22;34309;47.260;2.796;2024-01-15T08:34:50;17.80;14.00
48515;DHT22;34309;47.260;2.796;2024-01-15T08:37:24;17.80;14.10
48515;DHT22;34309;47.260;2.796;2024-01-15T08:39:58;17.80;14.00
48515;DHT22;34309;47.260;2.796;2024-01-15T08:42:32;17.80;14.00
48515;DHT22;34309;47.260;2.796;2024-01-15T08:45:06;17.90;14.10
48515;DHT22;34309;47.260;2.796;2024-01-15T08:47:40;17.90;14.10
48515;DHT22;34309;47.260;2.796;2024-01-15T08:50:15;17.90;14.10
48515;DHT22;34309;47.260;2.796;2024-01-15T08:52:49;17.90;14.10
48515;DHT22;34309;47.260;2.796;2024-01-15T08:55:22;17.90;14.00
48515;DHT22;34309;47.260;2.796;2024-01-15T08:57:56;17.90;14.00
48515;DHT22;34309;47.260;2.796;2024-01-15T09:00:30;17.90;14.00
48515;DHT22;34309;47.260;2.796;2024-01-15T09:03:04;17.90;14.10
48515;DHT22;34309;47.260;2.796;2024-01-15T09:05:39;17.90;14.00
48515;DHT22;34309;47.260;2.796;2024-01-15T09:08:14;17.90;14.00
48515;DHT22;34309;47.260;2.796;2024-01-15T09:10:48;17.90;14.10
48515;DHT22;34309;47.260;2.796;2024-01-15T09:13:21;17.90;14.10
48515;DHT22;34309;47.260;2.796;2024-01-15T09:15:55;17.90;14.10
48515;DHT22;34309;47.260;2.796;2024-01-15T09:18:31;17.90;14.00
48515;DHT22;34309;47.260;2.796;2024-01-15T09:21:06;17.90;14.10
48515;DHT22;34309;47.260;2.796;2024-01-15T09:23:40;17.90;14.10
48515;DHT22;34309;47.260;2.796;2024-01-15T09:26:14;17.80;14.60
48515;DHT22;34309;47.260;2.796;2024-01-15T09:28:47;17.80;14.10
48515;DHT22;34309;47.260;2.796;2024-01-15T09:31:16;17.80;14.10
48515;DHT22;34309;47.260;2.796;2024-01-15T09:33:51;17.80;14.10
48515;DHT22;34309;47.260;2.796;2024-01-15T09:36:29;17.80;14.20
48515;DHT22;34309;47.260;2.796;2024-01-15T09:39:03;17.80;14.10
48515;DHT22;34309;47.260;2.796;2024-01-15T09:41:40;17.70;14.10
48515;DHT22;34309;47.260;2.796;2024-01-15T09:44:15;17.70;14.10
48515;DHT22;34309;47.260;2.796;2024-01-15T09:46:49;17.70;14.10
48515;DHT22;34309;47.260;2.796;2024-01-15T09:49:25;17.70;14.10
48515;DHT22;34309;47.260;2.796;2024-01-15T09:52:01;17.70;14.10
48515;DHT22;34309;47.260;2.796;2024-01-15T09:54:35;17.70;14.10
48515;DHT22;34309;47.260;2.796;2024-01-15T09:57:09;17.70;14.20
48515;DHT22;34309;47.260;2.796;2024-01-15T09:59:43;17.70;14.10
48515;DHT22;34309;47.260;2.796;2024-01-15T10:02:18;17.70;14.20
48515;DHT22;34309;47.260;2.796;2024-01-15T10:04:52;17.70;14.20
48515;DHT22;34309;47.260;2.796;2024-01-15T10:07:29;17.70;14.10
48515;DHT22;34309;47.260;2.796;2024-01-15T10:10:03;17.80;14.20
48515;DHT22;34309;47.260;2.796;2024-01-15T10:12:38;17.80;14.10
48515;DHT22;34309;47.260;2.796;2024-01-15T10:15:12;17.80;14.10
48515;DHT22;34309;47.260;2.796;2024-01-15T10:17:46;17.80;14.10
48515;DHT22;34309;47.260;2.796;2024-01-15T10:20:20;17.90;14.20
48515;DHT22;34309;47.260;2.796;2024-01-15T10:22:57;17.90;14.10
48515;DHT22;34309;47.260;2.796;2024-01-15T10:25:30;17.90;14.10
48515;DHT22;34309;47.260;2.796;2024-01-15T10:28:04;17.90;14.20
48515;DHT22;34309;47.260;2.796;2024-01-15T10:30:38;17.90;14.20
48515;DHT22;34309;47.260;2.796;2024-01-15T10:33:12;17.90;14.30
48515;DHT22;34309;47.260;2.796;2024-01-15T10:35:47;17.90;14.30
48515;DHT22;34309;47.260;2.796;2024-01-15T10:38:23;17.90;14.40
48515;DHT22;34309;47.260;2.796;2024-01-15T10:40:57;17.90;14.40
48515;DHT22;34309;47.260;2.796;2024-01-15T10:43:30;17.90;14.40
48515;DHT22;34309;47.260;2.796;2024-01-15T10:46:04;17.90;14.50
48515;DHT22;34309;47.260;2.796;2024-01-15T10:48:38;17.90;14.60
48515;DHT22;34309;47.260;2.796;2024-01-15T10:51:13;17.90;14.70
48515;DHT22;34309;47.260;2.796;2024-01-15T10:53:49;17.90;14.60
48515;DHT22;34309;47.260;2.796;2024-01-15T10:56:23;17.90;14.70
48515;DHT22;34309;47.260;2.796;2024-01-15T10:58:57;17.90;14.70
48515;DHT22;34309;47.260;2.796;2024-01-15T11:01:31;17.90;14.80
48515;DHT22;34309;47.260;2.796;2024-01-15T11:04:06;17.90;14.90
48515;DHT22;34309;47.260;2.796;2024-01-15T11:06:45;17.80;15.00
48515;DHT22;34309;47.260;2.796;2024-01-15T11:09:20;17.80;15.00
48515;DHT22;34309;47.260;2.796;2024-01-15T11:12:07;17.80;15.10
48515;DHT22;34309;47.260;2.796;2024-01-15T11:14:46;17.80;15.00
48515;DHT22;34309;47.260;2.796;2024-01-15T11:17:19;17.80;15.00
48515;DHT22;34309;47.260;2.796;2024-01-15T11:19:53;17.80;15.20
48515;DHT22;34309;47.260;2.796;2024-01-15T11:22:48;17.80;15.30
48515;DHT22;34309;47.260;2.796;2024-01-15T11:25:23;17.80;15.30
48515;DHT22;34309;47.260;2.796;2024-01-15T11:27:57;17.80;15.40
48515;DHT22;34309;47.260;2.796;2024-01-15T11:30:31;17.90;15.50
48515;DHT22;34309;47.260;2.796;2024-01-15T11:33:33;17.90;15.40
48515;DHT22;34309;47.260;2.796;2024-01-15T11:36:07;17.90;15.60
48515;DHT22;34309;47.260;2.796;2024-01-15T11:38:41;18.00;15.50
48515;DHT22;34309;47.260;2.796;2024-01-15T11:41:16;17.90;15.50
48515;DHT22;34309;47.260;2.796;2024-01-15T11:43:45;17.90;15.50
48515;DHT22;34309;47.260;2.796;2024-01-15T11:46:19;18.00;15.50
48515;DHT22;34309;47.260;2.796;2024-01-15T11:49:01;18.00;15.50
48515;DHT22;34309;47.260;2.796;2024-01-15T11:51:37;18.00;15.50
48515;DHT22;34309;47.260;2.796;2024-01-15T11:54:08;18.00;15.50
48515;DHT22;34309;47.260;2.796;2024-01-15T11:56:45;18.00;15.60
48515;DHT22;34309;47.260;2.796;2024-01-15T11:59:18;18.00;15.50
48515;DHT22;34309;47.260;2.796;2024-01-15T12:01:53;18.00;15.50
48515;DHT22;34309;47.260;2.796;2024-01-15T12:04:26;18.00;15.50
48515;DHT22;34309;47.260;2.796;2024-01-15T12:07:00;18.00;15.50
48515;DHT22;34309;47.260;2.796;2024-01-15T12:09:35;18.00;15.50
48515;DHT22;34309;47.260;2.796;2024-01-15T12:12:13;17.90;15.50
48515;DHT22;34309;47.260;2.796;2024-01-15T12:14:50;17.90;15.40
48515;DHT22;34309;47.260;2.796;2024-01-15T12:17:24;17.90;15.50
48515;DHT22;34309;47.260;2.796;2024-01-15T12:19:58;17.90;15.50
48515;DHT22;34309;47.260;2.796;2024-01-15T12:22:31;17.90;15.60
48515;DHT22;34309;47.260;2.796;2024-01-15T12:25:00;17.90;15.60
48515;DHT22;34309;47.260;2.796;2024-01-15T12:27:36;17.90;15.60
48515;DHT22;34309;47.260;2.796;2024-01-15T12:30:13;17.90;15.60
48515;DHT22;34309;47.260;2.796;2024-01-15T12:32:47;17.90;15.50
48515;DHT22;34309;47.260;2.796;2024-01-15T12:35:21;17.90;15.60
48515;DHT22;34309;47.260;2.796;2024-01-15T12:37:50;17.90;15.60
48515;DHT22;34309;47.260;2.796;2024-01-15T12:40:24;17.90;15.60
48515;DHT22;34309;47.260;2.796;2024-01-15T12:42:59;17.90;15.60
48515;DHT22;34309;47.260;2.796;2024-01-15T12:45:33;18.00;15.70
48515;DHT22;34309;47.260;2.796;2024-01-15T12:48:09;18.00;15.70
48515;DHT22;34309;47.260;2.796;2024-01-15T12:50:45;18.00;15.60
48515;DHT22;34309;47.260;2.796;2024-01-15T12:53:19;18.00;15.60
48515;DHT22;34309;47.260;2.796;2024-01-15T12:55:54;18.00;15.50
48515;DHT22;34309;47.260;2.796;2024-01-15T12:58:29;18.10;15.70
48515;DHT22;34309;47.260;2.796;2024-01-15T13:01:03;18.10;15.70
48515;DHT22;34309;47.260;2.796;2024-01-15T13:03:37;18.10;15.60
48515;DHT22;34309;47.260;2.796;2024-01-15T13:06:11;18.10;15.60
48515;DHT22;34309;47.260;2.796;2024-01-15T13:08:44;18.20;15.50
48515;DHT22;34309;47.260;2.796;2024-01-15T13:11:18;18.10;15.60
48515;DHT22;34309;47.260;2.796;2024-01-15T13:13:54;18.20;15.60
48515;DHT22;34309;47.260;2.796;2024-01-15T13:16:27;18.20;15.60
48515;DHT22;34309;47.260;2.796;2024-01-15T13:19:01;18.20;15.70
48515;DHT22;34309;47.260;2.796;2024-01-15T13:21:35;18.20;15.60
48515;DHT22;34309;47.260;2.796;2024-01-15T13:24:09;18.20;15.60
48515;DHT22;34309;47.260;2.796;2024-01-15T13:26:43;18.20;15.60
48515;DHT22;34309;47.260;2.796;2024-01-15T13:29:18;18.20;15.50
48515;DHT22;34309;47.260;2.796;2024-01-15T13:31:52;18.20;15.60
48515;DHT22;34309;47.260;2.796;2024-01-15T13:34:27;18.20;15.60
48515;DHT22;34309;47.260;2.796;2024-01-15T13:37:02;18.20;15.60
48515;DHT22;34309;47.260;2.796;2024-01-15T13:39:36;18.20;16.30
48515;DHT22;34309;47.260;2.796;2024-01-15T13:42:10;18.20;16.10
48515;DHT22;34309;47.260;2.796;2024-01-15T13:44:46;18.20;16.30
48515;DHT22;34309;47.260;2.796;2024-01-15T13:47:19;18.30;16.50
48515;DHT22;34309;47.260;2.796;2024-01-15T13:49:53;18.30;16.60
48515;DHT22;34309;47.260;2.796;2024-01-15T13:52:28;18.30;17.00
48515;DHT22;34309;47.260;2.796;2024-01-15T13:55:01;18.30;16.90
48515;DHT22;34309;47.260;2.796;2024-01-15T13:57:35;18.30;17.10
48515;DHT22;34309;47.260;2.796;2024-01-15T14:00:12;18.30;17.30
48515;DHT22;34309;47.260;2.796;2024-01-15T14:02:50;18.40;17.60
48515;DHT22;34309;47.260;2.796;2024-01-15T14:05:24;18.40;17.60
48515;DHT22;34309;47.260;2.796;2024-01-15T14:07:58;18.40;17.60
48515;DHT22;34309;47.260;2.796;2024-01-15T14:10:32;18.40;17.80
48515;DHT22;34309;47.260;2.796;2024-01-15T14:13:06;18.40;17.80
48515;DHT22;34309;47.260;2.796;2024-01-15T14:15:42;18.50;18.10
48515;DHT22;34309;47.260;2.796;2024-01-15T14:18:16;18.50;18.30
48515;DHT22;34309;47.260;2.796;2024-01-15T14:20:44;18.60;18.50
48515;DHT22;34309;47.260;2.796;2024-01-15T14:23:18;18.70;18.60
48515;DHT22;34309;47.260;2.796;2024-01-15T14:25:52;18.70;18.50
48515;DHT22;34309;47.260;2.796;2024-01-15T14:28:26;18.80;18.70
48515;DHT22;34309;47.260;2.796;2024-01-15T14:31:01;18.80;18.60
48515;DHT22;34309;47.260;2.796;2024-01-15T14:33:35;18.90;18.70
48515;DHT22;34309;47.260;2.796;2024-01-15T14:36:08;18.90;18.60
48515;DHT22;34309;47.260;2.796;2024-01-15T14:38:42;19.00;18.60
48515;DHT22;34309;47.260;2.796;2024-01-15T14:41:16;19.00;18.60
48515;DHT22;34309;47.260;2.796;2024-01-15T14:43:50;19.10;19.10
48515;DHT22;34309;47.260;2.796;2024-01-15T14:46:25;19.10;18.50
48515;DHT22;34309;47.260;2.796;2024-01-15T14:48:59;19.10;18.20
48515;DHT22;34309;47.260;2.796;2024-01-15T14:51:28;19.20;18.70
48515;DHT22;34309;47.260;2.796;2024-01-15T14:54:01;19.20;18.10
48515;DHT22;34309;47.260;2.796;2024-01-15T14:56:35;19.20;18.00
48515;DHT22;34309;47.260;2.796;2024-01-15T14:59:09;19.30;17.90
48515;DHT22;34309;47.260;2.796;2024-01-15T15:01:44;19.30;17.90
48515;DHT22;34309;47.260;2.796;2024-01-15T15:04:17;19.40;17.90
48515;DHT22;34309;47.260;2.796;2024-01-15T15:06:51;19.40;17.70
48515;DHT22;34309;47.260;2.796;2024-01-15T15:09:25;19.40;18.30
48515;DHT22;34309;47.260;2.796;2024-01-15T15:11:58;19.40;17.60
48515;DHT22;34309;47.260;2.796;2024-01-15T15:14:32;19.50;17.80
48515;DHT22;34309;47.260;2.796;2024-01-15T15:17:11;19.50;17.70
48515;DHT22;34309;47.260;2.796;2024-01-15T15:19:45;19.50;17.70
48515;DHT22;34309;47.260;2.796;2024-01-15T15:22:18;19.50;17.70
48515;DHT22;34309;47.260;2.796;2024-01-15T15:24:52;19.50;17.80
48515;DHT22;34309;47.260;2.796;2024-01-15T15:27:27;19.60;17.70
48515;DHT22;34309;47.260;2.796;2024-01-15T15:29:56;19.60;17.30
48515;DHT22;34309;47.260;2.796;2024-01-15T15:32:31;19.60;17.10
48515;DHT22;34309;47.260;2.796;2024-01-15T15:35:05;19.50;17.10
48515;DHT22;34309;47.260;2.796;2024-01-15T15:37:39;19.60;17.10
48515;DHT22;34309;47.260;2.796;2024-01-15T15:40:13;19.60;16.90
48515;DHT22;34309;47.260;2.796;2024-01-15T15:42:47;19.50;16.70
48515;DHT22;34309;47.260;2.796;2024-01-15T15:45:21;19.50;16.70
48515;DHT22;34309;47.260;2.796;2024-01-15T15:47:56;19.50;16.60
48515;DHT22;34309;47.260;2.796;2024-01-15T15:50:29;19.50;16.70
48515;DHT22;34309;47.260;2.796;2024-01-15T15:53:03;19.50;16.80
48515;DHT22;34309;47.260;2.796;2024-01-15T15:55:37;19.40;16.70
48515;DHT22;34309;47.260;2.796;2024-01-15T15:58:11;19.40;16.80
48515;DHT22;34309;47.260;2.796;2024-01-15T16:00:45;19.40;16.80
48515;DHT22;34309;47.260;2.796;2024-01-15T16:03:15;19.40;16.90
48515;DHT22;34309;47.260;2.796;2024-01-15T16:05:44;19.40;17.00
48515;DHT22;34309;47.260;2.796;2024-01-15T16:08:19;19.40;17.10
48515;DHT22;34309;47.260;2.796;2024-01-15T16:10:53;19.40;17.10
48515;DHT22;34309;47.260;2.796;2024-01-15T16:13:30;19.40;17.10